createdAt,value
2023-05-05T00:02:12.835Z,14.26
2023-05-05T00:05:01.414Z,14.20
2023-05-05T00:07:50.255Z,14.18
2023-05-05T00:10:38.775Z,14.14
2023-05-05T00:13:27.284Z,14.10
2023-05-05T00:16:17.501Z,14.13
2023-05-05T00:19:06.620Z,14.10
2023-05-05T00:21:55.142Z,14.05
2023-05-05T00:24:43.676Z,14.02
2023-05-05T00:27:32.424Z,13.95
2023-05-05T00:30:21.132Z,13.86
2023-05-05T00:33:11.287Z,13.88
2023-05-05T00:35:59.803Z,13.89
2023-05-05T00:38:48.321Z,13.84
2023-05-05T00:41:36.849Z,13.84
2023-05-05T00:44:37.221Z,13.79
2023-05-05T00:47:25.768Z,13.68
2023-05-05T00:50:23.622Z,13.78
2023-05-05T00:53:13.148Z,13.72
2023-05-05T00:56:01.715Z,13.80
2023-05-05T00:58:53.397Z,13.82
2023-05-05T01:01:41.958Z,13.91
2023-05-05T01:04:30.518Z,13.86
2023-05-05T01:07:27.797Z,13.93
2023-05-05T01:10:22.070Z,13.95
2023-05-05T01:13:21.210Z,13.91
2023-05-05T01:16:26.383Z,13.99
2023-05-05T01:19:27.672Z,14.03
2023-05-05T01:22:16.825Z,13.86
2023-05-05T01:25:17.840Z,13.81
2023-05-05T01:28:12.407Z,13.93
2023-05-05T01:31:10.783Z,13.90
2023-05-05T01:34:02.605Z,13.92
2023-05-05T01:36:56.888Z,13.96
2023-05-05T01:39:47.857Z,13.90
2023-05-05T01:42:37.538Z,13.85
2023-05-05T01:45:27.820Z,13.92
2023-05-05T01:48:18.310Z,13.94
2023-05-05T01:51:09.011Z,13.89
2023-05-05T01:53:59.148Z,13.74
2023-05-05T01:56:47.979Z,13.79
2023-05-05T01:59:37.444Z,13.89
2023-05-05T02:02:27.491Z,13.87
2023-05-05T02:05:17.091Z,13.86
2023-05-05T02:08:07.844Z,13.79
2023-05-05T02:10:56.865Z,13.92
2023-05-05T02:13:45.884Z,13.91
2023-05-05T02:16:34.842Z,13.85
2023-05-05T02:19:28.105Z,13.85
2023-05-05T02:22:16.863Z,13.85
2023-05-05T02:25:07.852Z,13.90
2023-05-05T02:27:58.078Z,13.93
2023-05-05T02:30:50.725Z,13.90
2023-05-05T02:33:39.857Z,13.89
2023-05-05T02:36:30.165Z,13.83
2023-05-05T02:39:23.450Z,13.90
2023-05-05T02:42:17.418Z,13.70
2023-05-05T02:45:11.596Z,13.21
2023-05-05T02:48:03.246Z,13.80
2023-05-05T02:50:51.724Z,13.74
2023-05-05T02:53:40.568Z,13.64
2023-05-05T02:56:35.599Z,13.71
2023-05-05T02:59:32.694Z,13.66
2023-05-05T03:02:25.525Z,13.60
2023-05-05T03:05:18.220Z,13.61
2023-05-05T03:08:12.095Z,13.66
2023-05-05T03:11:05.834Z,13.64
2023-05-05T03:14:02.685Z,13.62
2023-05-05T03:16:53.739Z,13.60
2023-05-05T03:19:43.759Z,13.54
2023-05-05T03:22:32.445Z,13.51
2023-05-05T03:25:21.151Z,13.50
2023-05-05T03:28:09.608Z,13.42
2023-05-05T03:30:58.161Z,13.40
2023-05-05T03:33:48.267Z,13.45
2023-05-05T03:36:37.098Z,13.38
2023-05-05T03:39:25.823Z,13.40
2023-05-05T03:42:14.351Z,13.40
2023-05-05T03:45:02.855Z,13.40
2023-05-05T03:47:51.381Z,13.42
2023-05-05T03:50:41.206Z,13.18
2023-05-05T03:53:29.652Z,13.39
2023-05-05T03:56:18.095Z,13.39
2023-05-05T03:59:06.899Z,13.35
2023-05-05T04:01:55.403Z,13.35
2023-05-05T04:04:43.945Z,13.41
2023-05-05T04:07:33.885Z,13.46
2023-05-05T04:10:22.506Z,13.45
2023-05-05T04:13:11.346Z,13.54
2023-05-05T04:16:00.157Z,13.42
2023-05-05T04:18:48.710Z,13.44
2023-05-05T04:21:37.167Z,13.52
2023-05-05T04:24:27.427Z,13.54
2023-05-05T04:27:15.880Z,13.67
2023-05-05T04:30:05.016Z,13.13
2023-05-05T04:32:53.772Z,13.69
2023-05-05T04:35:42.366Z,13.76
2023-05-05T04:38:30.895Z,13.52
2023-05-05T04:41:21.356Z,13.84
2023-05-05T04:44:09.920Z,13.93
2023-05-05T04:46:58.655Z,13.95
2023-05-05T04:49:47.218Z,13.99
2023-05-05T04:52:35.795Z,14.04
2023-05-05T04:55:24.240Z,14.12
2023-05-05T04:58:14.024Z,14.14
2023-05-05T05:01:03.268Z,14.17
2023-05-05T05:03:52.039Z,14.21
2023-05-05T05:06:40.524Z,14.28
2023-05-05T05:09:28.977Z,14.35
2023-05-05T05:12:17.451Z,14.39
2023-05-05T05:15:08.858Z,14.41
2023-05-05T05:17:57.910Z,14.49
2023-05-05T05:20:46.422Z,14.59
2023-05-05T05:23:35.039Z,14.71
2023-05-05T05:26:23.527Z,14.91
2023-05-05T05:29:11.944Z,14.99
2023-05-05T05:32:01.859Z,15.11
2023-05-05T05:34:50.352Z,14.91
2023-05-05T05:37:39.057Z,15.28
2023-05-05T05:40:27.511Z,15.33
2023-05-05T05:43:15.965Z,15.43
2023-05-05T05:46:05.872Z,15.50
2023-05-05T05:48:57.397Z,15.52
2023-05-05T05:51:45.898Z,15.65
2023-05-05T05:54:35.592Z,15.66
2023-05-05T05:57:24.639Z,15.79
2023-05-05T06:00:15.785Z,15.86
2023-05-05T06:03:04.457Z,15.88
2023-05-05T06:05:54.316Z,15.92
2023-05-05T06:08:42.769Z,16.01
2023-05-05T06:11:31.296Z,16.07
2023-05-05T06:14:20.202Z,16.04
2023-05-05T06:17:08.768Z,16.29
2023-05-05T06:19:57.280Z,16.42
2023-05-05T06:22:47.059Z,16.64
2023-05-05T06:25:35.546Z,16.75
2023-05-05T06:28:23.968Z,16.57
2023-05-05T06:31:12.859Z,16.56
2023-05-05T06:34:01.385Z,17.36
2023-05-05T06:36:49.939Z,17.58
2023-05-05T06:39:39.761Z,17.75
2023-05-05T06:42:28.425Z,17.90
2023-05-05T06:45:16.978Z,18.01
2023-05-05T06:48:05.940Z,18.18
2023-05-05T06:50:54.994Z,18.31
2023-05-05T06:53:43.478Z,18.42
2023-05-05T06:56:33.309Z,18.59
2023-05-05T06:59:22.020Z,18.87
2023-05-05T07:02:10.520Z,19.02
2023-05-05T07:04:59.042Z,19.20
2023-05-05T07:07:54.251Z,19.48
2023-05-05T07:10:42.781Z,19.73
2023-05-05T07:13:32.723Z,19.82
2023-05-05T07:16:21.244Z,19.91
2023-05-05T07:19:09.744Z,20.03
2023-05-05T07:21:58.247Z,20.04
2023-05-05T07:24:46.736Z,20.05
2023-05-05T07:27:35.635Z,20.13
2023-05-05T07:30:26.033Z,20.38
2023-05-05T07:33:15.809Z,20.46
2023-05-05T07:36:04.746Z,20.38
2023-05-05T07:38:53.437Z,20.48
2023-05-05T07:41:42.249Z,20.50
2023-05-05T07:44:30.727Z,20.50
2023-05-05T07:47:20.930Z,20.47
2023-05-05T07:50:10.129Z,20.43
2023-05-05T07:53:10.860Z,20.32
2023-05-05T07:56:02.680Z,20.41
2023-05-05T07:58:51.142Z,20.59
2023-05-05T08:01:39.790Z,20.45
2023-05-05T08:04:29.793Z,20.82
2023-05-05T08:07:18.366Z,21.10
2023-05-05T08:10:08.112Z,21.51
2023-05-05T08:12:56.721Z,21.90
2023-05-05T08:15:45.704Z,22.25
2023-05-05T08:18:37.450Z,22.58
2023-05-05T08:21:27.732Z,22.83
2023-05-05T08:24:16.218Z,22.93
2023-05-05T08:27:04.973Z,22.91
2023-05-05T08:29:53.451Z,22.82
2023-05-05T08:32:42.230Z,22.69
2023-05-05T08:35:30.766Z,22.64
2023-05-05T08:38:20.682Z,22.60
2023-05-05T08:41:09.865Z,22.47
2023-05-05T08:43:58.397Z,22.33
2023-05-05T08:46:47.187Z,22.36
2023-05-05T08:49:41.734Z,22.25
2023-05-05T08:52:34.811Z,22.15
2023-05-05T08:55:26.629Z,22.12
2023-05-05T08:58:16.448Z,22.12
2023-05-05T09:01:06.231Z,21.67
2023-05-05T09:03:54.727Z,21.98
2023-05-05T09:06:43.552Z,21.92
2023-05-05T09:09:32.052Z,21.83
2023-05-05T09:12:23.064Z,21.70
2023-05-05T09:15:13.090Z,21.54
2023-05-05T09:18:03.617Z,21.20
2023-05-05T09:20:52.203Z,21.51
2023-05-05T09:23:40.726Z,20.99
2023-05-05T09:26:31.989Z,21.32
2023-05-05T09:29:22.364Z,21.32
2023-05-05T09:32:10.826Z,21.32
2023-05-05T09:35:00.276Z,21.30
2023-05-05T09:37:49.037Z,21.32
2023-05-05T09:40:46.519Z,21.46
2023-05-05T09:43:51.725Z,21.02
2023-05-05T09:46:51.214Z,21.44
2023-05-05T09:49:40.181Z,21.50
2023-05-05T09:52:28.749Z,21.75
2023-05-05T09:55:18.634Z,21.84
2023-05-05T09:58:19.884Z,21.94
2023-05-05T10:01:23.134Z,22.02
2023-05-05T10:04:25.896Z,22.11
2023-05-05T10:07:24.029Z,22.19
2023-05-05T10:10:14.103Z,22.22
2023-05-05T10:13:03.152Z,22.22
2023-05-05T10:15:53.037Z,22.29
2023-05-05T10:18:44.964Z,22.30
2023-05-05T10:21:41.451Z,22.32
2023-05-05T10:24:35.894Z,22.53
2023-05-05T10:27:25.815Z,22.77
2023-05-05T10:30:18.947Z,23.04
2023-05-05T10:33:30.328Z,23.15
2023-05-05T10:36:21.511Z,23.39
2023-05-05T10:39:11.983Z,23.50
2023-05-05T10:42:02.859Z,23.81
2023-05-05T10:44:51.401Z,23.89
2023-05-05T10:47:40.807Z,23.96
2023-05-05T10:50:31.774Z,23.95
2023-05-05T10:53:24.046Z,23.91
2023-05-05T10:56:17.355Z,23.88
2023-05-05T10:59:42.747Z,23.84
2023-05-05T11:02:31.781Z,23.73
2023-05-05T11:05:22.279Z,23.68
2023-05-05T11:08:26.385Z,23.72
2023-05-05T11:11:16.325Z,23.61
2023-05-05T11:14:22.462Z,23.64
2023-05-05T11:17:45.445Z,23.63
2023-05-05T11:21:09.097Z,23.70
2023-05-05T11:24:28.203Z,23.70
2023-05-05T11:27:18.045Z,23.71
2023-05-05T11:30:09.057Z,23.52
2023-05-05T11:33:25.819Z,23.62
2023-05-05T11:36:15.233Z,23.56
2023-05-05T11:39:09.807Z,23.56
2023-05-05T11:42:23.353Z,24.01
2023-05-05T11:45:22.543Z,24.39
2023-05-05T11:48:26.513Z,24.50
2023-05-05T11:51:15.302Z,24.61
2023-05-05T11:54:03.913Z,24.60
2023-05-05T11:56:52.618Z,24.58
2023-05-05T11:59:54.403Z,24.35
2023-05-05T12:02:42.935Z,24.36
2023-05-05T12:05:32.745Z,24.55
2023-05-05T12:08:22.177Z,24.51
2023-05-05T12:11:12.033Z,24.64
2023-05-05T12:14:10.616Z,24.84
2023-05-05T12:17:08.465Z,24.75
2023-05-05T12:19:56.954Z,24.76
2023-05-05T12:22:45.488Z,24.76
2023-05-05T12:25:39.019Z,24.73
2023-05-05T12:28:44.368Z,24.82
2023-05-05T12:31:36.900Z,24.85
2023-05-05T12:34:27.349Z,24.73
2023-05-05T12:37:18.964Z,24.86
2023-05-05T12:40:09.106Z,25.13
2023-05-05T12:42:57.772Z,25.54
2023-05-05T12:45:46.374Z,25.61
2023-05-05T12:48:36.449Z,25.57
2023-05-05T12:51:27.092Z,25.45
2023-05-05T12:54:15.575Z,25.45
2023-05-05T12:57:12.374Z,25.18
2023-05-05T13:00:13.682Z,24.90
2023-05-05T13:03:02.560Z,24.83
2023-05-05T13:05:51.161Z,24.84
2023-05-05T13:08:46.945Z,24.99
2023-05-05T13:11:39.198Z,25.39
2023-05-05T13:14:27.735Z,25.54
2023-05-05T13:17:16.296Z,25.51
2023-05-05T13:20:05.460Z,25.42
2023-05-05T13:22:53.937Z,25.25
2023-05-05T13:25:43.800Z,25.07
2023-05-05T13:28:32.349Z,24.97
2023-05-05T13:31:21.119Z,24.72
2023-05-05T13:34:09.744Z,24.49
2023-05-05T13:36:58.317Z,24.37
2023-05-05T13:39:46.816Z,24.55
2023-05-05T13:42:36.774Z,24.70
2023-05-05T13:45:25.387Z,24.72
2023-05-05T13:48:13.986Z,24.63
2023-05-05T13:51:02.438Z,24.59
2023-05-05T13:53:51.497Z,24.59
2023-05-05T13:56:39.985Z,24.61
2023-05-05T13:59:30.000Z,24.56
2023-05-05T14:02:18.426Z,24.54
2023-05-05T14:05:07.958Z,24.72
2023-05-05T14:07:56.646Z,24.91
2023-05-05T14:10:47.255Z,25.02
2023-05-05T14:13:36.300Z,25.10
2023-05-05T14:16:26.160Z,25.16
2023-05-05T14:19:14.715Z,25.32
2023-05-05T14:22:03.173Z,25.32
2023-05-05T14:24:51.695Z,24.95
2023-05-05T14:27:40.240Z,24.90
2023-05-05T14:30:28.861Z,24.82
2023-05-05T14:33:18.736Z,24.76
2023-05-05T14:36:08.064Z,24.66
2023-05-05T14:38:56.604Z,24.56
2023-05-05T14:41:45.160Z,24.41
2023-05-05T14:44:33.653Z,24.52
2023-05-05T14:47:22.239Z,24.36
2023-05-05T14:50:14.110Z,24.14
2023-05-05T14:53:02.748Z,24.13
2023-05-05T14:55:51.276Z,24.24
2023-05-05T14:58:39.710Z,24.13
2023-05-05T15:01:28.381Z,24.02
2023-05-05T15:04:16.877Z,23.88
2023-05-05T15:07:06.765Z,23.82
2023-05-05T15:09:55.399Z,23.69
2023-05-05T15:12:43.952Z,23.82
2023-05-05T15:15:32.801Z,23.67
2023-05-05T15:18:21.258Z,23.65
2023-05-05T15:21:09.738Z,23.68
2023-05-05T15:23:59.661Z,23.51
2023-05-05T15:26:48.166Z,23.29
2023-05-05T15:29:36.848Z,23.07
2023-05-05T15:32:25.561Z,22.82
2023-05-05T15:35:14.109Z,22.60
2023-05-05T15:38:02.676Z,22.04
2023-05-05T15:40:52.665Z,21.82
2023-05-05T15:43:41.399Z,21.41
2023-05-05T15:46:32.752Z,20.84
2023-05-05T15:49:21.266Z,20.70
2023-05-05T15:52:09.849Z,20.23
2023-05-05T15:54:58.294Z,19.57
2023-05-05T15:57:48.348Z,19.45
2023-05-05T16:00:37.079Z,18.98
2023-05-05T16:03:25.892Z,18.96
2023-05-05T16:06:14.464Z,18.85
2023-05-05T16:09:03.779Z,18.64
2023-05-05T16:11:54.059Z,18.57
2023-05-05T16:14:43.901Z,18.45
2023-05-05T16:17:32.421Z,18.39
2023-05-05T16:20:21.138Z,18.35
2023-05-05T16:23:09.609Z,18.31
2023-05-05T16:25:58.206Z,18.29
2023-05-05T16:28:46.725Z,18.30
2023-05-05T16:31:36.669Z,18.37
2023-05-05T16:34:25.237Z,18.33
2023-05-05T16:37:13.797Z,18.25
2023-05-05T16:40:05.395Z,18.12
2023-05-05T16:42:53.984Z,17.99
2023-05-05T16:45:43.387Z,17.91
2023-05-05T16:48:33.340Z,17.86
2023-05-05T16:51:21.864Z,17.53
2023-05-05T16:54:10.349Z,17.75
2023-05-05T16:56:58.815Z,17.71
2023-05-05T16:59:47.291Z,17.75
2023-05-05T17:02:36.227Z,17.77
2023-05-05T17:05:26.925Z,17.81
2023-05-05T17:08:15.485Z,17.91
2023-05-05T17:11:03.959Z,17.88
2023-05-05T17:13:52.406Z,17.90
2023-05-05T17:16:41.032Z,18.03
2023-05-05T17:19:29.714Z,18.02
2023-05-05T17:22:19.661Z,17.84
2023-05-05T17:25:09.669Z,17.85
2023-05-05T17:27:58.685Z,17.80
2023-05-05T17:30:47.285Z,17.85
2023-05-05T17:33:35.803Z,17.79
2023-05-05T17:36:24.386Z,17.81
2023-05-05T17:39:14.307Z,17.79
2023-05-05T17:42:02.868Z,17.82
2023-05-05T17:44:51.407Z,17.81
2023-05-05T17:47:40.041Z,17.51
2023-05-05T17:50:28.628Z,17.77
2023-05-05T17:53:17.096Z,17.75
2023-05-05T17:56:08.989Z,17.74
2023-05-05T17:58:57.904Z,17.74
2023-05-05T18:01:46.477Z,17.71
2023-05-05T18:04:36.750Z,17.69
2023-05-05T18:07:25.355Z,17.65
2023-05-05T18:10:13.905Z,17.63
2023-05-05T18:13:03.889Z,17.67
2023-05-05T18:15:52.440Z,17.62
2023-05-05T18:18:41.610Z,17.55
2023-05-05T18:21:30.160Z,17.44
2023-05-05T18:24:20.320Z,17.50
2023-05-05T18:27:09.209Z,17.49
2023-05-05T18:29:59.178Z,17.49
2023-05-05T18:32:48.776Z,17.44
2023-05-05T18:35:37.330Z,17.48
2023-05-05T18:38:25.894Z,17.50
2023-05-05T18:41:15.231Z,17.47
2023-05-05T18:44:03.905Z,17.46
2023-05-05T18:46:53.830Z,17.46
2023-05-05T18:49:42.378Z,17.47
2023-05-05T18:52:30.896Z,17.45
2023-05-05T18:55:19.527Z,17.40
2023-05-05T18:58:08.064Z,17.35
2023-05-05T19:00:57.516Z,17.30
2023-05-05T19:03:49.060Z,17.31
2023-05-05T19:06:39.387Z,17.14
2023-05-05T19:09:28.111Z,17.33
2023-05-05T19:12:16.607Z,17.29
2023-05-05T19:15:05.733Z,17.25
2023-05-05T19:17:54.287Z,17.23
2023-05-05T19:20:44.261Z,17.23
2023-05-05T19:23:33.360Z,17.21
2023-05-05T19:26:22.070Z,17.15
2023-05-05T19:29:10.656Z,17.17
2023-05-05T19:31:59.204Z,17.14
2023-05-05T19:34:47.932Z,17.14
2023-05-05T19:37:37.848Z,17.06
2023-05-05T19:40:26.380Z,17.05
2023-05-05T19:43:15.055Z,16.95
2023-05-05T19:46:03.602Z,16.97
2023-05-05T19:48:54.658Z,17.12
2023-05-05T19:51:43.777Z,17.08
2023-05-05T19:54:33.723Z,17.05
2023-05-05T19:57:22.260Z,16.98
2023-05-05T20:00:12.039Z,16.98
2023-05-05T20:03:01.001Z,16.90
2023-05-05T20:05:49.572Z,16.76
2023-05-05T20:08:38.773Z,16.87
2023-05-05T20:11:29.279Z,16.84
2023-05-05T20:14:18.002Z,16.82
2023-05-05T20:17:06.510Z,16.79
2023-05-05T20:19:55.081Z,16.82
2023-05-05T20:22:43.563Z,16.76
2023-05-05T20:25:32.088Z,16.58
2023-05-05T20:28:22.112Z,16.62
2023-05-05T20:31:10.864Z,16.56
2023-05-05T20:33:59.411Z,16.50
2023-05-05T20:36:47.990Z,16.49
2023-05-05T20:39:36.556Z,16.51
2023-05-05T20:42:25.625Z,16.50
2023-05-05T20:45:16.280Z,16.47
2023-05-05T20:48:05.568Z,16.25
2023-05-05T20:50:54.162Z,16.46
2023-05-05T20:53:42.707Z,16.38
2023-05-05T20:56:31.256Z,16.42
2023-05-05T20:59:19.870Z,16.40
2023-05-05T21:02:09.774Z,16.37
2023-05-05T21:05:02.862Z,16.32
2023-05-05T21:07:51.613Z,16.29
2023-05-05T21:10:40.759Z,16.21
2023-05-05T21:13:29.285Z,16.35
2023-05-05T21:16:17.769Z,16.20
2023-05-05T21:19:07.683Z,16.17
2023-05-05T21:21:58.964Z,16.10
2023-05-05T21:24:47.508Z,16.12
2023-05-05T21:27:35.943Z,16.07
2023-05-05T21:30:24.959Z,16.07
2023-05-05T21:33:13.425Z,15.99
2023-05-05T21:36:03.344Z,15.99
2023-05-05T21:38:55.277Z,15.97
2023-05-05T21:41:43.804Z,15.97
2023-05-05T21:44:32.312Z,15.99
2023-05-05T21:47:20.815Z,15.91
2023-05-05T21:50:11.130Z,16.03
2023-05-05T21:53:01.200Z,15.94
2023-05-05T21:55:49.669Z,15.89
2023-05-05T21:58:38.201Z,15.89
2023-05-05T22:01:26.858Z,15.81
2023-05-05T22:04:15.459Z,15.84
2023-05-05T22:07:04.155Z,15.79
2023-05-05T22:09:54.023Z,15.77
2023-05-05T22:12:42.503Z,15.77
2023-05-05T22:15:38.940Z,15.76
2023-05-05T22:18:34.259Z,15.72
2023-05-05T22:21:22.903Z,15.72
2023-05-05T22:24:11.524Z,15.70
2023-05-05T22:27:01.744Z,15.67
2023-05-05T22:29:50.289Z,15.59
2023-05-05T22:32:38.879Z,15.65
2023-05-05T22:35:27.464Z,15.62
2023-05-05T22:38:16.026Z,15.49
2023-05-05T22:41:04.640Z,15.54
2023-05-05T22:43:54.502Z,15.44
2023-05-05T22:46:43.098Z,15.43
2023-05-05T22:49:31.689Z,15.38
2023-05-05T22:52:20.229Z,15.47
2023-05-05T22:55:09.521Z,15.45
2023-05-05T22:57:58.238Z,15.41
2023-05-05T23:00:48.077Z,15.37
2023-05-05T23:03:36.805Z,15.31
2023-05-05T23:06:25.420Z,14.99
2023-05-05T23:09:13.884Z,15.32
2023-05-05T23:12:02.855Z,15.30
2023-05-05T23:14:51.468Z,15.30
2023-05-05T23:17:41.421Z,15.29
2023-05-05T23:20:30.021Z,15.28
2023-05-05T23:23:18.548Z,15.39
2023-05-05T23:26:07.115Z,15.39
2023-05-05T23:28:55.582Z,15.37
2023-05-05T23:31:44.035Z,15.33
2023-05-05T23:34:33.936Z,15.30
2023-05-05T23:37:22.929Z,15.43
2023-05-05T23:40:11.797Z,15.44
2023-05-05T23:43:00.945Z,15.29
2023-05-05T23:45:49.551Z,15.41
2023-05-05T23:48:38.009Z,15.44
2023-05-05T23:51:28.284Z,15.59
2023-05-05T23:54:16.821Z,15.54
2023-05-05T23:57:05.434Z,15.57
2023-05-05T23:59:53.899Z,15.51
